This is the latest recevied weather packets stored in our database for station/object HI6LT. If no packets are shown the sender has not sent any weather packets the latest 10 day(s).
| Time | Temp. | Humidity | Pressure | Rain* | Wind** | Luminosity | Snow |
|---|---|---|---|---|---|---|---|
| 1777567378 | 20.56° C | 78% | 1033.1 hPa | 0 mm | - | - | - |
| 1777567298 | 21.11° C | 81% | 1032.8 hPa | 0 mm | - | - | - |
| 1777565877 | 20.56° C | 80% | 1033 hPa | 0 mm | - | - | - |
| 1777565614 | 20° C | 78% | 1033.4 hPa | 0 mm | - | - | - |
| 1777565497 | 20.56° C | 78% | 1033.1 hPa | 0 mm | - | - | - |
| 1777564030 | 21.11° C | 79% | 1033.5 hPa | 0 mm | - | - | - |
| 1777563696 | 20° C | 78% | 1033.4 hPa | 0 mm | - | - | - |
| 1777563176 | 21.11° C | 76% | 1033.4 hPa | 0 mm | - | - | - |
| 1777563158 | 20° C | 76% | 1033.7 hPa | 0 mm | - | - | - |
| 1777562166 | 19.44° C | 86% | 1033.6 hPa | 0 mm | - | - | - |
| 1777561905 | 21.11° C | 79% | 1033.5 hPa | 0 mm | - | - | - |
| 1777560474 | 20° C | 80% | 1033.6 hPa | 0 mm | - | - | - |
| 1777560104 | 20° C | 76% | 1033.7 hPa | 0 mm | - | - | - |
| 1777559114 | 18.89° C | 84% | 1033.7 hPa | 0 mm | - | - | - |
| 1777558302 | 19.44° C | 86% | 1033.6 hPa | 0 mm | - | - | - |
| 1777557918 | 17.22° C | 90% | 1033.6 hPa | 0 mm | - | - | - |
| 1777557772 | 18.89° C | 87% | 1033.8 hPa | 0 mm | - | - | - |
| 1777556501 | 18.89° C | 84% | 1033.7 hPa | 0 mm | - | - | - |
| 1777555080 | 17.78° C | 85% | 1033.6 hPa | 0 mm | - | - | - |
| 1777554700 | 17.22° C | 90% | 1033.6 hPa | 0 mm | - | - | - |
| 1777554312 | 14.44° C | 97% | 1033 hPa | 0 mm | - | - | - |
| 1777552900 | 15.56° C | 96% | 1033.1 hPa | 0 mm | - | - | - |
| 1777552380 | 15° C | 97% | 1032.9 hPa | 0 mm | - | - | - |
| 1777551778 | 14.44° C | 96% | 1032.3 hPa | 0 mm | - | - | - |
| 1777551100 | 14.44° C | 97% | 1033 hPa | 0 mm | - | - | - |
* Rain latest hour (hover to see other rain measurements)
** Current wind speed in m/s (hover to see current wind gust speed)